sensor_id;sensor_type;location;lat;lon;timestamp;P1;durP1;ratioP1;P2;durP2;ratioP2
37001;SDS011;22913;51.910;8.374;2022-07-23T00:00:27;7.13;;;6.43;;
37001;SDS011;22913;51.910;8.374;2022-07-23T00:03:12;7.00;;;6.30;;
37001;SDS011;22913;51.910;8.374;2022-07-23T00:05:58;8.43;;;6.40;;
37001;SDS011;22913;51.910;8.374;2022-07-23T00:08:45;6.67;;;5.77;;
37001;SDS011;22913;51.910;8.374;2022-07-23T00:11:31;7.07;;;5.73;;
37001;SDS011;22913;51.910;8.374;2022-07-23T00:14:16;8.33;;;6.63;;
37001;SDS011;22913;51.910;8.374;2022-07-23T00:17:02;6.30;;;5.77;;
37001;SDS011;22913;51.910;8.374;2022-07-23T00:19:48;9.97;;;6.07;;
37001;SDS011;22913;51.910;8.374;2022-07-23T00:22:33;10.87;;;5.60;;
37001;SDS011;22913;51.910;8.374;2022-07-23T00:25:21;7.00;;;5.83;;
37001;SDS011;22913;51.910;8.374;2022-07-23T00:28:07;10.33;;;6.37;;
37001;SDS011;22913;51.910;8.374;2022-07-23T00:30:53;10.07;;;6.23;;
37001;SDS011;22913;51.910;8.374;2022-07-23T00:33:39;6.13;;;5.50;;
37001;SDS011;22913;51.910;8.374;2022-07-23T00:36:24;6.20;;;5.60;;
37001;SDS011;22913;51.910;8.374;2022-07-23T00:39:11;8.77;;;6.07;;
37001;SDS011;22913;51.910;8.374;2022-07-23T00:41:58;7.00;;;5.83;;
37001;SDS011;22913;51.910;8.374;2022-07-23T00:44:43;6.90;;;6.00;;
37001;SDS011;22913;51.910;8.374;2022-07-23T00:47:30;8.93;;;6.27;;
37001;SDS011;22913;51.910;8.374;2022-07-23T00:50:16;6.83;;;6.10;;
37001;SDS011;22913;51.910;8.374;2022-07-23T00:53:02;7.23;;;6.60;;
37001;SDS011;22913;51.910;8.374;2022-07-23T00:55:48;6.43;;;5.93;;
37001;SDS011;22913;51.910;8.374;2022-07-23T00:58:36;7.33;;;6.60;;
37001;SDS011;22913;51.910;8.374;2022-07-23T01:01:23;7.83;;;7.10;;
37001;SDS011;22913;51.910;8.374;2022-07-23T01:04:09;7.60;;;6.73;;
37001;SDS011;22913;51.910;8.374;2022-07-23T01:06:55;7.10;;;6.33;;
37001;SDS011;22913;51.910;8.374;2022-07-23T01:09:41;6.90;;;6.20;;
37001;SDS011;22913;51.910;8.374;2022-07-23T01:12:27;6.87;;;6.07;;
37001;SDS011;22913;51.910;8.374;2022-07-23T01:15:14;7.40;;;6.63;;
37001;SDS011;22913;51.910;8.374;2022-07-23T01:18:00;7.17;;;6.47;;
37001;SDS011;22913;51.910;8.374;2022-07-23T01:20:46;6.67;;;5.93;;
37001;SDS011;22913;51.910;8.374;2022-07-23T01:23:32;7.47;;;6.77;;
37001;SDS011;22913;51.910;8.374;2022-07-23T01:26:18;6.67;;;6.07;;
37001;SDS011;22913;51.910;8.374;2022-07-23T01:29:04;7.23;;;6.63;;
37001;SDS011;22913;51.910;8.374;2022-07-23T01:31:50;7.47;;;6.77;;
37001;SDS011;22913;51.910;8.374;2022-07-23T01:34:35;8.33;;;6.80;;
37001;SDS011;22913;51.910;8.374;2022-07-23T01:37:21;7.80;;;7.00;;
37001;SDS011;22913;51.910;8.374;2022-07-23T01:40:08;7.53;;;6.73;;
37001;SDS011;22913;51.910;8.374;2022-07-23T01:42:54;7.90;;;7.20;;
37001;SDS011;22913;51.910;8.374;2022-07-23T01:45:39;8.57;;;6.90;;
37001;SDS011;22913;51.910;8.374;2022-07-23T01:48:25;8.57;;;7.63;;
37001;SDS011;22913;51.910;8.374;2022-07-23T01:51:11;7.43;;;6.83;;
37001;SDS011;22913;51.910;8.374;2022-07-23T01:53:56;7.93;;;7.27;;
37001;SDS011;22913;51.910;8.374;2022-07-23T01:56:43;10.20;;;6.93;;
37001;SDS011;22913;51.910;8.374;2022-07-23T01:59:28;10.70;;;7.27;;
37001;SDS011;22913;51.910;8.374;2022-07-23T02:02:14;7.97;;;6.67;;
37001;SDS011;22913;51.910;8.374;2022-07-23T02:05:00;7.37;;;6.77;;
37001;SDS011;22913;51.910;8.374;2022-07-23T02:07:45;7.73;;;6.93;;
37001;SDS011;22913;51.910;8.374;2022-07-23T02:10:31;7.83;;;7.13;;
37001;SDS011;22913;51.910;8.374;2022-07-23T02:13:18;9.30;;;7.20;;
37001;SDS011;22913;51.910;8.374;2022-07-23T02:16:04;8.83;;;7.40;;
37001;SDS011;22913;51.910;8.374;2022-07-23T02:18:50;8.27;;;7.50;;
37001;SDS011;22913;51.910;8.374;2022-07-23T02:21:35;8.70;;;7.80;;
37001;SDS011;22913;51.910;8.374;2022-07-23T02:24:21;9.73;;;7.80;;
37001;SDS011;22913;51.910;8.374;2022-07-23T02:27:07;9.43;;;8.47;;
37001;SDS011;22913;51.910;8.374;2022-07-23T02:29:54;9.30;;;8.13;;
37001;SDS011;22913;51.910;8.374;2022-07-23T02:32:39;10.63;;;7.73;;
37001;SDS011;22913;51.910;8.374;2022-07-23T02:35:25;13.40;;;8.10;;
37001;SDS011;22913;51.910;8.374;2022-07-23T02:38:11;8.77;;;7.77;;
37001;SDS011;22913;51.910;8.374;2022-07-23T02:40:56;8.00;;;7.20;;
37001;SDS011;22913;51.910;8.374;2022-07-23T02:43:42;8.97;;;8.10;;
37001;SDS011;22913;51.910;8.374;2022-07-23T02:46:29;8.33;;;7.47;;
37001;SDS011;22913;51.910;8.374;2022-07-23T02:49:15;8.43;;;7.47;;
37001;SDS011;22913;51.910;8.374;2022-07-23T02:52:00;8.70;;;7.80;;
37001;SDS011;22913;51.910;8.374;2022-07-23T02:54:46;8.63;;;7.83;;
37001;SDS011;22913;51.910;8.374;2022-07-23T02:57:32;8.37;;;7.50;;
37001;SDS011;22913;51.910;8.374;2022-07-23T03:00:17;9.67;;;8.40;;
37001;SDS011;22913;51.910;8.374;2022-07-23T03:03:04;9.03;;;8.30;;
37001;SDS011;22913;51.910;8.374;2022-07-23T03:05:50;8.50;;;7.63;;
37001;SDS011;22913;51.910;8.374;2022-07-23T03:08:36;11.03;;;8.47;;
37001;SDS011;22913;51.910;8.374;2022-07-23T03:11:21;11.50;;;8.67;;
37001;SDS011;22913;51.910;8.374;2022-07-23T03:14:07;8.63;;;7.83;;
37001;SDS011;22913;51.910;8.374;2022-07-23T03:16:53;10.47;;;8.67;;
37001;SDS011;22913;51.910;8.374;2022-07-23T03:19:39;9.27;;;7.97;;
37001;SDS011;22913;51.910;8.374;2022-07-23T03:22:25;11.87;;;8.47;;
37001;SDS011;22913;51.910;8.374;2022-07-23T03:25:10;10.30;;;8.50;;
37001;SDS011;22913;51.910;8.374;2022-07-23T03:27:56;11.60;;;9.03;;
37001;SDS011;22913;51.910;8.374;2022-07-23T03:30:42;11.07;;;8.27;;
37001;SDS011;22913;51.910;8.374;2022-07-23T03:33:29;10.93;;;8.60;;
37001;SDS011;22913;51.910;8.374;2022-07-23T03:36:16;9.90;;;8.80;;
37001;SDS011;22913;51.910;8.374;2022-07-23T03:39:02;9.87;;;8.30;;
37001;SDS011;22913;51.910;8.374;2022-07-23T03:41:48;12.17;;;7.57;;
37001;SDS011;22913;51.910;8.374;2022-07-23T03:44:34;9.27;;;7.80;;
37001;SDS011;22913;51.910;8.374;2022-07-23T03:47:20;10.27;;;8.67;;
37001;SDS011;22913;51.910;8.374;2022-07-23T03:50:07;9.60;;;8.20;;
37001;SDS011;22913;51.910;8.374;2022-07-23T03:52:54;9.67;;;8.30;;
37001;SDS011;22913;51.910;8.374;2022-07-23T03:55:40;9.43;;;8.57;;
37001;SDS011;22913;51.910;8.374;2022-07-23T03:58:25;9.40;;;8.50;;
37001;SDS011;22913;51.910;8.374;2022-07-23T04:01:11;9.70;;;8.90;;
37001;SDS011;22913;51.910;8.374;2022-07-23T04:03:57;9.73;;;8.77;;
37001;SDS011;22913;51.910;8.374;2022-07-23T04:06:43;11.63;;;8.73;;
37001;SDS011;22913;51.910;8.374;2022-07-23T04:09:30;9.57;;;8.57;;
37001;SDS011;22913;51.910;8.374;2022-07-23T04:12:15;11.93;;;8.90;;
37001;SDS011;22913;51.910;8.374;2022-07-23T04:15:01;9.20;;;8.40;;
37001;SDS011;22913;51.910;8.374;2022-07-23T04:17:47;11.27;;;8.97;;
37001;SDS011;22913;51.910;8.374;2022-07-23T04:20:32;9.37;;;8.57;;
37001;SDS011;22913;51.910;8.374;2022-07-23T04:23:18;11.37;;;9.27;;
37001;SDS011;22913;51.910;8.374;2022-07-23T04:26:05;10.90;;;8.83;;
37001;SDS011;22913;51.910;8.374;2022-07-23T04:28:51;10.20;;;9.10;;
37001;SDS011;22913;51.910;8.374;2022-07-23T04:31:36;10.13;;;8.37;;
37001;SDS011;22913;51.910;8.374;2022-07-23T04:34:22;15.00;;;8.43;;
37001;SDS011;22913;51.910;8.374;2022-07-23T04:37:10;9.57;;;8.23;;
37001;SDS011;22913;51.910;8.374;2022-07-23T04:39:56;11.23;;;7.70;;
37001;SDS011;22913;51.910;8.374;2022-07-23T04:42:43;10.67;;;7.93;;
37001;SDS011;22913;51.910;8.374;2022-07-23T04:45:28;8.60;;;7.70;;
37001;SDS011;22913;51.910;8.374;2022-07-23T04:48:14;7.80;;;7.13;;
37001;SDS011;22913;51.910;8.374;2022-07-23T04:51:00;11.20;;;7.20;;
37001;SDS011;22913;51.910;8.374;2022-07-23T04:53:45;8.73;;;7.83;;
37001;SDS011;22913;51.910;8.374;2022-07-23T04:56:31;8.60;;;7.67;;
37001;SDS011;22913;51.910;8.374;2022-07-23T04:59:18;9.43;;;8.40;;
37001;SDS011;22913;51.910;8.374;2022-07-23T05:02:04;10.40;;;8.50;;
37001;SDS011;22913;51.910;8.374;2022-07-23T05:04:49;7.97;;;7.17;;
37001;SDS011;22913;51.910;8.374;2022-07-23T05:07:35;11.27;;;7.63;;
37001;SDS011;22913;51.910;8.374;2022-07-23T05:10:20;9.07;;;8.20;;
37001;SDS011;22913;51.910;8.374;2022-07-23T05:13:06;9.27;;;8.30;;
37001;SDS011;22913;51.910;8.374;2022-07-23T05:15:53;11.43;;;8.57;;
37001;SDS011;22913;51.910;8.374;2022-07-23T05:18:39;9.93;;;8.03;;
37001;SDS011;22913;51.910;8.374;2022-07-23T05:21:24;8.90;;;8.00;;
37001;SDS011;22913;51.910;8.374;2022-07-23T05:24:10;12.27;;;8.53;;
37001;SDS011;22913;51.910;8.374;2022-07-23T05:26:56;10.07;;;8.53;;
37001;SDS011;22913;51.910;8.374;2022-07-23T05:29:41;9.57;;;8.57;;
37001;SDS011;22913;51.910;8.374;2022-07-23T05:32:28;8.87;;;7.30;;
37001;SDS011;22913;51.910;8.374;2022-07-23T05:35:16;11.63;;;7.03;;
37001;SDS011;22913;51.910;8.374;2022-07-23T05:38:01;10.53;;;7.03;;
37001;SDS011;22913;51.910;8.374;2022-07-23T05:40:47;10.20;;;7.27;;
37001;SDS011;22913;51.910;8.374;2022-07-23T05:43:33;7.83;;;6.00;;
37001;SDS011;22913;51.910;8.374;2022-07-23T05:46:18;7.80;;;6.43;;
37001;SDS011;22913;51.910;8.374;2022-07-23T05:49:05;6.83;;;5.90;;
37001;SDS011;22913;51.910;8.374;2022-07-23T05:51:51;7.20;;;6.43;;
37001;SDS011;22913;51.910;8.374;2022-07-23T05:54:36;9.50;;;6.50;;
37001;SDS011;22913;51.910;8.374;2022-07-23T05:57:22;6.73;;;6.03;;
37001;SDS011;22913;51.910;8.374;2022-07-23T06:00:08;7.10;;;6.00;;
37001;SDS011;22913;51.910;8.374;2022-07-23T06:02:55;10.27;;;5.83;;
37001;SDS011;22913;51.910;8.374;2022-07-23T06:05:42;7.27;;;6.03;;
37001;SDS011;22913;51.910;8.374;2022-07-23T06:08:28;7.30;;;6.10;;
37001;SDS011;22913;51.910;8.374;2022-07-23T06:11:13;7.33;;;6.17;;
37001;SDS011;22913;51.910;8.374;2022-07-23T06:13:59;6.10;;;5.50;;
37001;SDS011;22913;51.910;8.374;2022-07-23T06:16:44;8.97;;;5.77;;
37001;SDS011;22913;51.910;8.374;2022-07-23T06:19:30;5.83;;;5.23;;
37001;SDS011;22913;51.910;8.374;2022-07-23T06:22:17;6.93;;;5.47;;
37001;SDS011;22913;51.910;8.374;2022-07-23T06:25:04;7.83;;;5.20;;
37001;SDS011;22913;51.910;8.374;2022-07-23T06:27:50;5.20;;;4.70;;
37001;SDS011;22913;51.910;8.374;2022-07-23T06:30:36;5.70;;;5.00;;
37001;SDS011;22913;51.910;8.374;2022-07-23T06:33:22;5.80;;;5.07;;
37001;SDS011;22913;51.910;8.374;2022-07-23T06:36:07;5.87;;;4.73;;
37001;SDS011;22913;51.910;8.374;2022-07-23T06:38:55;5.70;;;4.60;;
37001;SDS011;22913;51.910;8.374;2022-07-23T06:41:40;7.67;;;5.30;;
37001;SDS011;22913;51.910;8.374;2022-07-23T06:44:26;5.73;;;5.03;;
37001;SDS011;22913;51.910;8.374;2022-07-23T06:47:12;7.77;;;4.80;;
37001;SDS011;22913;51.910;8.374;2022-07-23T06:49:57;5.00;;;4.20;;
37001;SDS011;22913;51.910;8.374;2022-07-23T06:52:43;8.03;;;5.23;;
37001;SDS011;22913;51.910;8.374;2022-07-23T06:55:30;5.47;;;4.97;;
37001;SDS011;22913;51.910;8.374;2022-07-23T06:58:16;5.73;;;5.10;;
37001;SDS011;22913;51.910;8.374;2022-07-23T07:01:02;5.93;;;5.27;;
37001;SDS011;22913;51.910;8.374;2022-07-23T07:03:48;7.27;;;5.50;;
37001;SDS011;22913;51.910;8.374;2022-07-23T07:06:34;6.27;;;5.57;;
37001;SDS011;22913;51.910;8.374;2022-07-23T07:09:20;5.87;;;5.37;;
37001;SDS011;22913;51.910;8.374;2022-07-23T07:12:07;7.57;;;5.60;;
37001;SDS011;22913;51.910;8.374;2022-07-23T07:14:53;7.60;;;5.77;;
37001;SDS011;22913;51.910;8.374;2022-07-23T07:17:39;6.27;;;5.17;;
37001;SDS011;22913;51.910;8.374;2022-07-23T07:20:25;5.90;;;5.37;;
37001;SDS011;22913;51.910;8.374;2022-07-23T07:23:12;7.17;;;5.90;;
37001;SDS011;22913;51.910;8.374;2022-07-23T07:25:58;6.40;;;5.80;;
37001;SDS011;22913;51.910;8.374;2022-07-23T07:28:45;7.27;;;6.07;;
37001;SDS011;22913;51.910;8.374;2022-07-23T07:31:30;9.40;;;6.40;;
37001;SDS011;22913;51.910;8.374;2022-07-23T07:34:16;7.10;;;6.43;;
37001;SDS011;22913;51.910;8.374;2022-07-23T07:37:02;6.13;;;5.53;;
37001;SDS011;22913;51.910;8.374;2022-07-23T07:39:47;6.57;;;5.97;;
37001;SDS011;22913;51.910;8.374;2022-07-23T07:42:33;7.30;;;5.83;;
37001;SDS011;22913;51.910;8.374;2022-07-23T07:45:21;8.63;;;5.90;;
37001;SDS011;22913;51.910;8.374;2022-07-23T07:48:07;6.33;;;5.73;;
37001;SDS011;22913;51.910;8.374;2022-07-23T07:50:53;5.90;;;5.27;;
37001;SDS011;22913;51.910;8.374;2022-07-23T07:53:38;5.40;;;4.90;;
37001;SDS011;22913;51.910;8.374;2022-07-23T07:56:24;7.03;;;5.73;;
37001;SDS011;22913;51.910;8.374;2022-07-23T07:59:10;5.73;;;5.23;;
37001;SDS011;22913;51.910;8.374;2022-07-23T08:01:57;6.33;;;5.33;;
37001;SDS011;22913;51.910;8.374;2022-07-23T08:04:42;5.63;;;5.10;;
37001;SDS011;22913;51.910;8.374;2022-07-23T08:07:28;7.67;;;5.13;;
37001;SDS011;22913;51.910;8.374;2022-07-23T08:10:14;5.43;;;4.93;;
37001;SDS011;22913;51.910;8.374;2022-07-23T08:12:59;7.63;;;5.80;;
37001;SDS011;22913;51.910;8.374;2022-07-23T08:15:45;8.50;;;5.03;;
37001;SDS011;22913;51.910;8.374;2022-07-23T08:18:32;6.00;;;4.57;;
37001;SDS011;22913;51.910;8.374;2022-07-23T08:21:17;5.60;;;4.83;;
37001;SDS011;22913;51.910;8.374;2022-07-23T08:24:03;6.57;;;5.17;;
37001;SDS011;22913;51.910;8.374;2022-07-23T08:26:49;5.20;;;4.63;;
37001;SDS011;22913;51.910;8.374;2022-07-23T08:29:34;8.07;;;5.37;;
37001;SDS011;22913;51.910;8.374;2022-07-23T08:32:20;6.17;;;4.77;;
37001;SDS011;22913;51.910;8.374;2022-07-23T08:35:07;5.83;;;4.50;;
37001;SDS011;22913;51.910;8.374;2022-07-23T08:37:53;7.27;;;5.07;;
37001;SDS011;22913;51.910;8.374;2022-07-23T08:40:40;4.93;;;4.43;;
37001;SDS011;22913;51.910;8.374;2022-07-23T08:43:28;4.77;;;4.03;;
37001;SDS011;22913;51.910;8.374;2022-07-23T08:46:16;5.67;;;3.93;;
37001;SDS011;22913;51.910;8.374;2022-07-23T08:49:03;4.37;;;3.97;;
37001;SDS011;22913;51.910;8.374;2022-07-23T08:51:51;7.57;;;4.00;;
37001;SDS011;22913;51.910;8.374;2022-07-23T08:54:37;4.93;;;3.70;;
37001;SDS011;22913;51.910;8.374;2022-07-23T08:57:23;5.00;;;3.63;;
37001;SDS011;22913;51.910;8.374;2022-07-23T09:00:09;3.60;;;3.10;;
37001;SDS011;22913;51.910;8.374;2022-07-23T09:02:56;6.03;;;3.77;;
37001;SDS011;22913;51.910;8.374;2022-07-23T09:05:41;3.90;;;3.53;;
37001;SDS011;22913;51.910;8.374;2022-07-23T09:08:35;4.60;;;3.60;;
37001;SDS011;22913;51.910;8.374;2022-07-23T09:11:21;3.20;;;3.00;;
37001;SDS011;22913;51.910;8.374;2022-07-23T09:14:07;4.73;;;3.30;;
37001;SDS011;22913;51.910;8.374;2022-07-23T09:16:52;3.70;;;3.33;;
37001;SDS011;22913;51.910;8.374;2022-07-23T09:19:38;5.50;;;3.20;;
37001;SDS011;22913;51.910;8.374;2022-07-23T09:22:25;4.63;;;3.40;;
37001;SDS011;22913;51.910;8.374;2022-07-23T09:25:13;5.50;;;3.27;;
37001;SDS011;22913;51.910;8.374;2022-07-23T09:28:01;3.83;;;2.80;;
37001;SDS011;22913;51.910;8.374;2022-07-23T09:30:47;5.60;;;3.10;;
37001;SDS011;22913;51.910;8.374;2022-07-23T09:33:36;4.07;;;3.20;;
37001;SDS011;22913;51.910;8.374;2022-07-23T09:36:29;4.07;;;2.60;;
37001;SDS011;22913;51.910;8.374;2022-07-23T09:39:15;2.70;;;2.50;;
37001;SDS011;22913;51.910;8.374;2022-07-23T09:42:14;3.90;;;2.57;;
37001;SDS011;22913;51.910;8.374;2022-07-23T09:45:02;3.60;;;3.00;;
37001;SDS011;22913;51.910;8.374;2022-07-23T09:47:48;4.93;;;3.13;;
37001;SDS011;22913;51.910;8.374;2022-07-23T09:50:34;3.10;;;2.80;;
37001;SDS011;22913;51.910;8.374;2022-07-23T09:53:23;2.73;;;2.47;;
37001;SDS011;22913;51.910;8.374;2022-07-23T09:56:09;2.87;;;2.67;;
37001;SDS011;22913;51.910;8.374;2022-07-23T09:59:00;2.73;;;2.30;;
37001;SDS011;22913;51.910;8.374;2022-07-23T10:01:50;3.40;;;2.60;;
37001;SDS011;22913;51.910;8.374;2022-07-23T10:04:36;4.17;;;2.83;;
37001;SDS011;22913;51.910;8.374;2022-07-23T10:07:22;4.23;;;3.10;;
37001;SDS011;22913;51.910;8.374;2022-07-23T10:10:10;3.27;;;2.80;;
37001;SDS011;22913;51.910;8.374;2022-07-23T10:12:58;3.13;;;2.83;;
37001;SDS011;22913;51.910;8.374;2022-07-23T10:16:06;5.20;;;2.67;;
37001;SDS011;22913;51.910;8.374;2022-07-23T10:18:53;3.20;;;2.90;;
37001;SDS011;22913;51.910;8.374;2022-07-23T10:21:40;4.50;;;2.50;;
37001;SDS011;22913;51.910;8.374;2022-07-23T10:24:36;2.80;;;2.60;;
37001;SDS011;22913;51.910;8.374;2022-07-23T10:27:35;3.03;;;2.63;;
37001;SDS011;22913;51.910;8.374;2022-07-23T10:30:39;2.67;;;2.47;;
37001;SDS011;22913;51.910;8.374;2022-07-23T10:33:32;3.10;;;2.90;;
37001;SDS011;22913;51.910;8.374;2022-07-23T10:36:31;2.70;;;2.50;;
37001;SDS011;22913;51.910;8.374;2022-07-23T10:39:26;3.57;;;2.20;;
37001;SDS011;22913;51.910;8.374;2022-07-23T10:42:15;3.77;;;2.33;;
37001;SDS011;22913;51.910;8.374;2022-07-23T10:45:03;3.60;;;2.43;;
37001;SDS011;22913;51.910;8.374;2022-07-23T10:48:12;2.43;;;2.20;;
37001;SDS011;22913;51.910;8.374;2022-07-23T10:51:07;4.10;;;2.70;;
37001;SDS011;22913;51.910;8.374;2022-07-23T10:53:55;2.57;;;2.33;;
37001;SDS011;22913;51.910;8.374;2022-07-23T11:06:18;4.67;;;2.50;;
37001;SDS011;22913;51.910;8.374;2022-07-23T11:15:19;3.23;;;2.67;;
37001;SDS011;22913;51.910;8.374;2022-07-23T11:18:04;4.90;;;2.97;;
37001;SDS011;22913;51.910;8.374;2022-07-23T11:20:50;4.40;;;2.60;;
37001;SDS011;22913;51.910;8.374;2022-07-23T11:26:44;2.53;;;2.33;;
37001;SDS011;22913;51.910;8.374;2022-07-23T11:29:46;3.73;;;2.70;;
37001;SDS011;22913;51.910;8.374;2022-07-23T11:32:35;2.57;;;2.33;;
37001;SDS011;22913;51.910;8.374;2022-07-23T11:35:27;2.33;;;2.00;;
37001;SDS011;22913;51.910;8.374;2022-07-23T11:38:16;2.40;;;2.20;;
37001;SDS011;22913;51.910;8.374;2022-07-23T11:41:05;3.37;;;2.10;;
37001;SDS011;22913;51.910;8.374;2022-07-23T11:43:51;2.67;;;2.40;;
37001;SDS011;22913;51.910;8.374;2022-07-23T11:46:36;2.50;;;2.30;;
37001;SDS011;22913;51.910;8.374;2022-07-23T11:49:22;3.07;;;2.00;;
37001;SDS011;22913;51.910;8.374;2022-07-23T11:52:09;4.20;;;2.13;;
37001;SDS011;22913;51.910;8.374;2022-07-23T11:54:57;2.50;;;2.30;;
37001;SDS011;22913;51.910;8.374;2022-07-23T11:57:46;3.33;;;1.93;;
37001;SDS011;22913;51.910;8.374;2022-07-23T12:00:32;2.97;;;2.30;;
37001;SDS011;22913;51.910;8.374;2022-07-23T12:03:18;3.40;;;1.80;;
37001;SDS011;22913;51.910;8.374;2022-07-23T12:06:04;2.23;;;1.70;;
37001;SDS011;22913;51.910;8.374;2022-07-23T12:08:50;3.10;;;2.00;;
37001;SDS011;22913;51.910;8.374;2022-07-23T12:11:35;3.10;;;1.80;;
37001;SDS011;22913;51.910;8.374;2022-07-23T12:14:22;2.00;;;1.80;;
37001;SDS011;22913;51.910;8.374;2022-07-23T12:17:08;2.07;;;1.87;;
37001;SDS011;22913;51.910;8.374;2022-07-23T12:19:55;3.17;;;1.97;;
37001;SDS011;22913;51.910;8.374;2022-07-23T12:22:44;1.70;;;1.40;;
37001;SDS011;22913;51.910;8.374;2022-07-23T12:25:32;2.67;;;1.57;;
37001;SDS011;22913;51.910;8.374;2022-07-23T12:28:20;1.93;;;1.70;;
37001;SDS011;22913;51.910;8.374;2022-07-23T12:31:07;2.00;;;1.70;;
37001;SDS011;22913;51.910;8.374;2022-07-23T12:33:53;2.53;;;1.70;;
37001;SDS011;22913;51.910;8.374;2022-07-23T12:36:39;2.33;;;1.50;;
37001;SDS011;22913;51.910;8.374;2022-07-23T12:39:31;3.10;;;1.33;;
37001;SDS011;22913;51.910;8.374;2022-07-23T12:42:17;1.63;;;1.40;;
37001;SDS011;22913;51.910;8.374;2022-07-23T12:45:07;1.80;;;1.30;;
37001;SDS011;22913;51.910;8.374;2022-07-23T12:47:57;1.43;;;1.30;;
37001;SDS011;22913;51.910;8.374;2022-07-23T12:50:52;1.53;;;1.43;;
37001;SDS011;22913;51.910;8.374;2022-07-23T12:53:40;1.90;;;1.50;;
37001;SDS011;22913;51.910;8.374;2022-07-23T12:56:27;1.33;;;1.23;;
37001;SDS011;22913;51.910;8.374;2022-07-23T12:59:14;1.63;;;1.50;;
37001;SDS011;22913;51.910;8.374;2022-07-23T13:02:00;1.33;;;1.23;;
37001;SDS011;22913;51.910;8.374;2022-07-23T13:04:47;1.77;;;1.43;;
37001;SDS011;22913;51.910;8.374;2022-07-23T13:07:33;1.80;;;1.30;;
37001;SDS011;22913;51.910;8.374;2022-07-23T13:10:18;2.53;;;1.30;;
37001;SDS011;22913;51.910;8.374;2022-07-23T13:13:07;2.03;;;1.20;;
37001;SDS011;22913;51.910;8.374;2022-07-23T13:15:53;1.60;;;1.50;;
37001;SDS011;22913;51.910;8.374;2022-07-23T13:18:39;2.33;;;1.20;;
37001;SDS011;22913;51.910;8.374;2022-07-23T13:21:27;1.63;;;1.53;;
37001;SDS011;22913;51.910;8.374;2022-07-23T13:24:13;1.23;;;1.10;;
37001;SDS011;22913;51.910;8.374;2022-07-23T13:26:58;1.83;;;1.47;;
37001;SDS011;22913;51.910;8.374;2022-07-23T13:29:44;1.97;;;1.30;;
37001;SDS011;22913;51.910;8.374;2022-07-23T13:32:30;4.53;;;1.40;;
37001;SDS011;22913;51.910;8.374;2022-07-23T13:35:15;2.20;;;1.47;;
37001;SDS011;22913;51.910;8.374;2022-07-23T13:38:02;1.73;;;1.47;;
37001;SDS011;22913;51.910;8.374;2022-07-23T13:40:49;1.57;;;1.20;;
37001;SDS011;22913;51.910;8.374;2022-07-23T13:43:35;1.77;;;1.30;;
37001;SDS011;22913;51.910;8.374;2022-07-23T13:46:21;1.40;;;1.30;;
37001;SDS011;22913;51.910;8.374;2022-07-23T13:49:06;3.27;;;1.60;;
37001;SDS011;22913;51.910;8.374;2022-07-23T13:51:52;2.17;;;1.60;;
37001;SDS011;22913;51.910;8.374;2022-07-23T13:54:39;3.50;;;1.47;;
37001;SDS011;22913;51.910;8.374;2022-07-23T13:57:24;2.90;;;1.40;;
37001;SDS011;22913;51.910;8.374;2022-07-23T14:00:11;1.30;;;1.30;;
37001;SDS011;22913;51.910;8.374;2022-07-23T14:02:57;1.40;;;1.30;;
37001;SDS011;22913;51.910;8.374;2022-07-23T14:05:43;2.40;;;1.30;;
37001;SDS011;22913;51.910;8.374;2022-07-23T14:08:29;1.23;;;1.13;;
37001;SDS011;22913;51.910;8.374;2022-07-23T14:11:16;1.00;;;1.00;;
37001;SDS011;22913;51.910;8.374;2022-07-23T14:14:02;4.00;;;1.40;;
37001;SDS011;22913;51.910;8.374;2022-07-23T14:16:48;2.07;;;1.33;;
37001;SDS011;22913;51.910;8.374;2022-07-23T14:19:34;1.40;;;1.30;;
37001;SDS011;22913;51.910;8.374;2022-07-23T14:22:19;1.93;;;1.10;;
37001;SDS011;22913;51.910;8.374;2022-07-23T14:25:06;2.40;;;1.40;;
37001;SDS011;22913;51.910;8.374;2022-07-23T14:27:54;1.50;;;1.40;;
37001;SDS011;22913;51.910;8.374;2022-07-23T14:30:39;1.63;;;1.30;;
37001;SDS011;22913;51.910;8.374;2022-07-23T14:33:26;1.20;;;1.20;;
37001;SDS011;22913;51.910;8.374;2022-07-23T14:36:11;1.80;;;1.13;;
37001;SDS011;22913;51.910;8.374;2022-07-23T14:38:57;1.60;;;1.45;;
37001;SDS011;22913;51.910;8.374;2022-07-23T14:41:43;1.27;;;1.17;;
37001;SDS011;22913;51.910;8.374;2022-07-23T14:44:30;2.03;;;1.55;;
37001;SDS011;22913;51.910;8.374;2022-07-23T14:47:16;1.10;;;1.10;;
37001;SDS011;22913;51.910;8.374;2022-07-23T14:50:01;2.65;;;1.20;;
37001;SDS011;22913;51.910;8.374;2022-07-23T14:52:47;2.27;;;1.53;;
37001;SDS011;22913;51.910;8.374;2022-07-23T14:55:33;1.75;;;1.65;;
37001;SDS011;22913;51.910;8.374;2022-07-23T14:58:19;2.63;;;1.50;;
37001;SDS011;22913;51.910;8.374;2022-07-23T15:01:06;3.40;;;1.40;;
37001;SDS011;22913;51.910;8.374;2022-07-23T15:03:51;1.53;;;1.40;;
37001;SDS011;22913;51.910;8.374;2022-07-23T15:06:37;1.60;;;1.50;;
37001;SDS011;22913;51.910;8.374;2022-07-23T15:09:23;2.40;;;1.50;;
37001;SDS011;22913;51.910;8.374;2022-07-23T15:12:09;1.33;;;1.27;;
37001;SDS011;22913;51.910;8.374;2022-07-23T15:14:54;1.33;;;1.30;;
37001;SDS011;22913;51.910;8.374;2022-07-23T15:17:41;3.57;;;1.77;;
37001;SDS011;22913;51.910;8.374;2022-07-23T15:20:27;2.65;;;1.70;;
37001;SDS011;22913;51.910;8.374;2022-07-23T15:23:12;1.75;;;1.55;;
37001;SDS011;22913;51.910;8.374;2022-07-23T15:25:58;2.85;;;1.33;;
37001;SDS011;22913;51.910;8.374;2022-07-23T15:28:43;1.45;;;1.35;;
37001;SDS011;22913;51.910;8.374;2022-07-23T15:31:29;1.58;;;1.42;;
37001;SDS011;22913;51.910;8.374;2022-07-23T15:34:16;1.80;;;1.50;;
37001;SDS011;22913;51.910;8.374;2022-07-23T15:37:01;2.05;;;1.50;;
37001;SDS011;22913;51.910;8.374;2022-07-23T15:39:48;1.73;;;1.55;;
37001;SDS011;22913;51.910;8.374;2022-07-23T15:42:34;1.65;;;1.35;;
37001;SDS011;22913;51.910;8.374;2022-07-23T15:45:20;1.98;;;1.30;;
37001;SDS011;22913;51.910;8.374;2022-07-23T15:48:06;1.65;;;1.55;;
37001;SDS011;22913;51.910;8.374;2022-07-23T15:50:53;4.22;;;1.80;;
37001;SDS011;22913;51.910;8.374;2022-07-23T15:53:39;2.10;;;1.60;;
37001;SDS011;22913;51.910;8.374;2022-07-23T15:56:24;1.60;;;1.38;;
37001;SDS011;22913;51.910;8.374;2022-07-23T15:59:10;2.20;;;1.57;;
37001;SDS011;22913;51.910;8.374;2022-07-23T16:01:56;1.93;;;1.50;;
37001;SDS011;22913;51.910;8.374;2022-07-23T16:04:42;2.00;;;1.43;;
37001;SDS011;22913;51.910;8.374;2022-07-23T16:07:29;1.70;;;1.60;;
37001;SDS011;22913;51.910;8.374;2022-07-23T16:10:15;2.77;;;1.67;;
37001;SDS011;22913;51.910;8.374;2022-07-23T16:13:01;1.77;;;1.50;;
37001;SDS011;22913;51.910;8.374;2022-07-23T16:15:47;1.23;;;1.13;;
37001;SDS011;22913;51.910;8.374;2022-07-23T16:18:32;1.60;;;1.53;;
37001;SDS011;22913;51.910;8.374;2022-07-23T16:21:18;2.13;;;1.60;;
37001;SDS011;22913;51.910;8.374;2022-07-23T16:24:06;1.70;;;1.60;;
37001;SDS011;22913;51.910;8.374;2022-07-23T16:26:51;1.80;;;1.70;;
37001;SDS011;22913;51.910;8.374;2022-07-23T16:29:37;2.27;;;1.90;;
37001;SDS011;22913;51.910;8.374;2022-07-23T16:32:23;1.90;;;1.70;;
37001;SDS011;22913;51.910;8.374;2022-07-23T16:35:09;2.13;;;1.40;;
37001;SDS011;22913;51.910;8.374;2022-07-23T16:37:55;1.67;;;1.57;;
37001;SDS011;22913;51.910;8.374;2022-07-23T16:40:45;1.33;;;1.33;;
37001;SDS011;22913;51.910;8.374;2022-07-23T16:43:30;1.90;;;1.73;;
37001;SDS011;22913;51.910;8.374;2022-07-23T16:46:16;1.60;;;1.50;;
37001;SDS011;22913;51.910;8.374;2022-07-23T16:49:03;1.60;;;1.50;;
37001;SDS011;22913;51.910;8.374;2022-07-23T16:51:49;1.47;;;1.37;;
37001;SDS011;22913;51.910;8.374;2022-07-23T16:54:35;1.97;;;1.77;;
37001;SDS011;22913;51.910;8.374;2022-07-23T16:57:22;1.83;;;1.73;;
37001;SDS011;22913;51.910;8.374;2022-07-23T17:00:08;1.27;;;1.13;;